createdAt,value
2023-05-05T00:00:33.265Z,87.20
2023-05-05T00:05:49.809Z,88.14
2023-05-05T00:10:53.947Z,88.16
2023-05-05T00:15:56.802Z,88.13
2023-05-05T00:20:59.735Z,88.12
2023-05-05T00:26:02.602Z,88.05
2023-05-05T00:31:05.520Z,88.47
2023-05-05T00:36:09.410Z,88.98
2023-05-05T00:41:12.324Z,90.80
2023-05-05T00:46:26.546Z,92.02
2023-05-05T00:51:29.841Z,92.63
2023-05-05T00:56:33.259Z,93.15
2023-05-05T01:01:36.389Z,94.40
2023-05-05T01:07:01.121Z,95.71
2023-05-05T01:12:03.879Z,95.85
2023-05-05T01:17:36.506Z,96.95
2023-05-05T01:22:57.428Z,98.81
2023-05-05T01:28:31.523Z,98.87
2023-05-05T01:33:59.959Z,99.98
2023-05-05T01:39:04.675Z,99.92
2023-05-05T01:44:09.635Z,100.00
2023-05-05T01:49:13.606Z,100.00
2023-05-05T01:54:17.743Z,100.00
2023-05-05T01:59:21.847Z,100.00
2023-05-05T02:04:27.591Z,100.00
2023-05-05T02:09:31.640Z,100.00
2023-05-05T02:14:36.108Z,100.00
2023-05-05T02:19:43.120Z,100.00
2023-05-05T02:24:46.197Z,100.00
2023-05-05T02:29:52.942Z,100.00
2023-05-05T02:34:58.990Z,100.00
2023-05-05T02:40:05.536Z,100.00
2023-05-05T02:45:14.123Z,100.00
2023-05-05T02:50:17.203Z,100.00
2023-05-05T02:55:20.452Z,100.00
2023-05-05T03:00:28.260Z,100.00
2023-05-05T03:05:44.023Z,100.00
2023-05-05T03:11:08.124Z,100.00
2023-05-05T03:16:13.284Z,100.00
2023-05-05T03:21:16.600Z,100.00
2023-05-05T03:26:19.318Z,100.00
2023-05-05T03:31:22.224Z,100.00
2023-05-05T03:36:26.184Z,100.00
2023-05-05T03:41:30.829Z,100.00
2023-05-05T03:46:33.642Z,100.00
2023-05-05T03:51:37.008Z,100.00
2023-05-05T03:56:40.462Z,100.00
2023-05-05T04:01:45.165Z,100.00
2023-05-05T04:06:48.033Z,100.00
2023-05-05T04:11:51.275Z,100.00
2023-05-05T04:16:54.013Z,100.00
2023-05-05T04:21:56.797Z,100.00
2023-05-05T04:26:59.730Z,100.00
2023-05-05T04:32:02.605Z,100.00
2023-05-05T04:37:05.489Z,100.00
2023-05-05T04:42:09.100Z,100.00
2023-05-05T04:47:13.972Z,100.00
2023-05-05T04:52:17.452Z,100.00
2023-05-05T04:57:20.352Z,99.64
2023-05-05T05:02:23.297Z,98.50
2023-05-05T05:07:26.577Z,97.72
2023-05-05T05:12:29.349Z,96.81
2023-05-05T05:17:32.220Z,96.00
2023-05-05T05:22:38.323Z,95.18
2023-05-05T05:27:41.887Z,94.11
2023-05-05T05:32:45.034Z,92.04
2023-05-05T05:37:48.239Z,90.54
2023-05-05T05:42:51.054Z,89.77
2023-05-05T05:47:53.962Z,88.16
2023-05-05T05:52:56.922Z,87.24
2023-05-05T05:57:59.778Z,86.14
2023-05-05T06:03:04.892Z,84.35
2023-05-05T06:08:08.109Z,82.64
2023-05-05T06:13:11.839Z,81.20
2023-05-05T06:18:18.480Z,81.21
2023-05-05T06:23:22.256Z,80.52
2023-05-05T06:28:25.491Z,78.81
2023-05-05T06:33:28.760Z,77.67
2023-05-05T06:38:31.514Z,76.37
2023-05-05T06:43:34.930Z,74.53
2023-05-05T06:48:37.801Z,73.21
2023-05-05T06:53:40.674Z,71.96
2023-05-05T06:58:43.476Z,71.03
2023-05-05T07:03:46.428Z,70.41
2023-05-05T07:08:49.523Z,69.15
2023-05-05T07:13:53.312Z,67.58
2023-05-05T07:18:57.101Z,67.16
2023-05-05T07:24:02.245Z,67.05
2023-05-05T07:29:11.515Z,67.00
2023-05-05T07:34:17.582Z,67.08
2023-05-05T07:39:22.052Z,67.90
2023-05-05T07:44:25.112Z,66.59
2023-05-05T07:49:28.096Z,65.77
2023-05-05T07:54:31.504Z,64.53
2023-05-05T07:59:35.117Z,63.71
2023-05-05T08:04:40.291Z,62.78
2023-05-05T08:09:45.579Z,61.64
2023-05-05T08:14:48.284Z,60.60
2023-05-05T08:19:54.792Z,59.89
2023-05-05T08:24:57.573Z,59.82
2023-05-05T08:30:00.446Z,59.80
2023-05-05T08:35:03.615Z,57.58
2023-05-05T08:40:07.448Z,56.67
2023-05-05T08:45:13.513Z,56.05
2023-05-05T08:50:17.487Z,55.54
2023-05-05T08:55:20.243Z,54.67
2023-05-05T09:00:23.747Z,54.22
2023-05-05T09:05:27.406Z,54.20
2023-05-05T09:10:31.164Z,54.20
2023-05-05T09:15:34.138Z,52.79
2023-05-05T09:20:37.727Z,52.44
2023-05-05T09:25:43.946Z,52.72
2023-05-05T09:30:47.413Z,53.12
2023-05-05T09:35:50.309Z,52.78
2023-05-05T09:40:54.158Z,51.53
2023-05-05T09:46:15.196Z,51.25
2023-05-05T09:51:29.806Z,50.62
2023-05-05T09:56:40.448Z,51.12
2023-05-05T10:01:44.003Z,50.51
2023-05-05T10:06:49.956Z,49.88
2023-05-05T10:11:53.944Z,49.82
2023-05-05T10:17:00.977Z,49.38
2023-05-05T10:22:08.478Z,47.72
2023-05-05T10:27:20.034Z,46.64
2023-05-05T10:37:39.430Z,45.48
2023-05-05T10:42:42.275Z,45.32
2023-05-05T10:47:45.123Z,44.83
2023-05-05T10:52:58.890Z,44.98
2023-05-05T10:58:01.885Z,44.05
2023-05-05T11:03:20.700Z,42.65
2023-05-05T11:08:27.248Z,41.89
2023-05-05T11:13:30.629Z,41.35
2023-05-05T11:18:36.563Z,41.32
2023-05-05T11:23:39.418Z,41.03
2023-05-05T11:28:54.859Z,40.91
2023-05-05T11:34:28.930Z,40.50
2023-05-05T11:39:54.658Z,39.64
2023-05-05T11:44:57.905Z,40.38
2023-05-05T11:50:16.551Z,40.18
2023-05-05T11:55:22.116Z,40.04
2023-05-05T12:00:34.257Z,38.76
2023-05-05T12:05:37.218Z,39.01
2023-05-05T12:10:40.144Z,38.92
2023-05-05T12:15:42.942Z,39.22
2023-05-05T12:20:45.664Z,38.13
2023-05-05T12:25:49.803Z,37.76
2023-05-05T12:30:57.822Z,37.04
2023-05-05T12:36:01.073Z,37.35
2023-05-05T12:41:04.722Z,37.31
2023-05-05T12:46:14.398Z,36.91
2023-05-05T12:51:17.369Z,36.04
2023-05-05T12:56:49.432Z,35.77
2023-05-05T13:01:54.076Z,35.73
2023-05-05T13:07:15.238Z,35.50
2023-05-05T13:12:18.887Z,35.90
2023-05-05T13:17:21.758Z,35.88
2023-05-05T13:22:24.628Z,35.13
2023-05-05T13:27:27.659Z,34.71
2023-05-05T13:32:30.563Z,34.75
2023-05-05T13:37:33.398Z,33.77
2023-05-05T13:42:36.205Z,33.95
2023-05-05T13:47:39.113Z,33.87
2023-05-05T13:52:42.089Z,33.24
2023-05-05T13:57:44.919Z,32.70
2023-05-05T14:02:50.909Z,31.90
2023-05-05T14:07:54.368Z,31.03
2023-05-05T14:12:57.787Z,30.29
2023-05-05T14:18:03.520Z,29.16
2023-05-05T14:23:06.526Z,28.18
2023-05-05T14:28:09.396Z,28.32
2023-05-05T14:33:13.892Z,28.01
2023-05-05T14:38:16.773Z,29.02
2023-05-05T14:43:19.570Z,29.45
2023-05-05T14:48:22.750Z,29.27
2023-05-05T14:53:25.722Z,29.16
2023-05-05T14:58:28.551Z,27.20
2023-05-05T15:03:31.788Z,27.82
2023-05-05T15:08:35.136Z,28.22
2023-05-05T15:13:41.854Z,28.03
2023-05-05T15:18:44.676Z,27.80
2023-05-05T15:23:47.964Z,25.89
2023-05-05T15:28:52.700Z,25.89
2023-05-05T15:33:56.162Z,26.28
2023-05-05T15:38:59.211Z,26.30
2023-05-05T15:44:03.355Z,24.47
2023-05-05T15:49:06.179Z,23.11
2023-05-05T15:54:08.939Z,22.09
2023-05-05T15:59:11.745Z,21.77
2023-05-05T16:04:14.767Z,21.84
2023-05-05T16:09:17.891Z,22.03
2023-05-05T16:14:20.718Z,22.82
2023-05-05T16:19:26.648Z,22.88
2023-05-05T16:24:29.451Z,23.09
2023-05-05T16:29:32.290Z,23.08
2023-05-05T16:34:35.144Z,23.14
2023-05-05T16:39:40.374Z,23.62
2023-05-05T16:44:43.511Z,23.25
2023-05-05T16:49:46.613Z,22.99
2023-05-05T16:54:55.575Z,23.08
2023-05-05T16:59:58.621Z,23.70
2023-05-05T17:05:02.498Z,24.05
2023-05-05T17:10:06.452Z,24.00
2023-05-05T17:15:09.789Z,24.52
2023-05-05T17:20:13.178Z,26.10
2023-05-05T17:25:16.144Z,28.13
2023-05-05T17:30:19.310Z,30.05
2023-05-05T17:35:22.190Z,31.50
2023-05-05T17:40:25.088Z,32.88
2023-05-05T17:45:28.142Z,34.30
2023-05-05T17:50:31.007Z,35.58
2023-05-05T17:55:33.797Z,36.61
2023-05-05T18:00:36.610Z,37.55
2023-05-05T18:05:39.492Z,38.35
2023-05-05T18:10:42.305Z,39.25
2023-05-05T18:15:45.194Z,39.91
2023-05-05T18:20:48.407Z,40.81
2023-05-05T18:25:51.224Z,41.57
2023-05-05T18:30:54.180Z,42.46
2023-05-05T18:35:57.941Z,42.99
2023-05-05T18:41:00.791Z,43.80
2023-05-05T18:46:03.639Z,44.60
2023-05-05T18:51:07.537Z,45.39
2023-05-05T18:56:10.367Z,46.49
2023-05-05T19:01:13.276Z,47.91
2023-05-05T19:06:17.391Z,49.14
2023-05-05T19:11:20.674Z,50.09
2023-05-05T19:16:24.127Z,51.12
2023-05-05T19:21:27.818Z,52.02
2023-05-05T19:26:30.690Z,52.92
2023-05-05T19:31:33.626Z,53.72
2023-05-05T19:36:36.684Z,54.40
2023-05-05T19:41:39.583Z,54.98
2023-05-05T19:46:42.696Z,55.67
2023-05-05T19:51:47.708Z,56.63
2023-05-05T19:56:51.549Z,56.95
2023-05-05T20:01:54.443Z,57.79
2023-05-05T20:06:57.402Z,58.21
2023-05-05T20:12:00.336Z,58.76
2023-05-05T20:17:03.292Z,59.11
2023-05-05T20:22:06.240Z,59.78
2023-05-05T20:27:09.046Z,60.57
2023-05-05T20:32:11.848Z,60.93
2023-05-05T20:37:14.713Z,61.00
2023-05-05T20:42:17.555Z,61.33
2023-05-05T20:47:20.761Z,61.67
2023-05-05T20:52:23.595Z,62.01
2023-05-05T20:57:26.452Z,63.17
2023-05-05T21:02:29.403Z,63.88
2023-05-05T21:07:35.588Z,64.85
2023-05-05T21:12:40.321Z,65.73
2023-05-05T21:17:43.173Z,65.79
2023-05-05T21:22:46.087Z,66.12
2023-05-05T21:27:49.221Z,66.45
2023-05-05T21:32:52.180Z,67.25
2023-05-05T21:37:55.031Z,68.09
2023-05-05T21:42:57.831Z,68.42
2023-05-05T21:48:01.074Z,68.74
2023-05-05T21:53:03.876Z,69.01
2023-05-05T21:58:06.725Z,70.02
2023-05-05T22:03:09.967Z,70.32
2023-05-05T22:08:13.035Z,71.01
2023-05-05T22:13:16.008Z,71.98
2023-05-05T22:18:18.872Z,72.42
2023-05-05T22:23:21.709Z,72.52
2023-05-05T22:28:24.706Z,73.24
2023-05-05T22:33:28.563Z,74.11
2023-05-05T22:38:31.402Z,74.74
2023-05-05T22:43:34.199Z,75.58
2023-05-05T22:48:37.055Z,76.47
2023-05-05T22:53:39.899Z,77.06
2023-05-05T22:58:42.816Z,77.50
2023-05-05T23:03:45.632Z,77.69
2023-05-05T23:08:49.425Z,78.10
2023-05-05T23:13:52.305Z,78.26
2023-05-05T23:18:55.110Z,79.02
2023-05-05T23:23:57.966Z,78.93
2023-05-05T23:29:00.808Z,79.08
2023-05-05T23:34:03.651Z,80.05
2023-05-05T23:39:07.386Z,80.72
2023-05-05T23:44:10.240Z,80.37
2023-05-05T23:49:13.052Z,80.40
2023-05-05T23:54:15.939Z,80.09
2023-05-05T23:59:18.744Z,80.00
